KMUI/MUI METAR and TAF weather

Enter ICAO airport designator
Station Type Date Time Source
KMUI METAR 2021/02/24 16:56 UTC NOAA

KMUI 241656Z 18004KT 10SM FEW250 08/M03 A3000 RMK AO2A SLP164 T00801026


Station Type Date Time Source
KMUI Decoded METAR 2021/02/24 16:56 UTC NOAA

Muir Army Air Field / Indiantown, PA, United States (KMUI) 40-26N 076-34W
Feb 24, 2021 - 11:56 AM EST / 2021.02.24 1656 UTC
Wind: from the S (180 degrees) at 5 MPH (4 KT):0
Visibility: 10 mile(s):0
Sky conditions: mostly clear
Temperature: 46.4 F (8.0 C)
Dew Point: 27.3 F (-2.6 C)
Relative Humidity: 47%
Pressure (altimeter): 30 in. Hg (1015 hPa)
ob: KMUI 241656Z 18004KT 10SM FEW250 08/M03 A3000 RMK AO2A SLP164 T00801026
cycle: 17

Station Type Date Time Source
KMUI TAF 2021/02/24 15:12 UTC NOAA

TAF
AMD KMUI 241504Z 2415/2517 VRB06KT 9999 BKN250 QNH3000INS
BECMG 2419/2420 20012G18KT 9999 SCT040 BKN090 QNH2977INS
TEMPO 2420/2423 20020G25KT
BECMG 2502/2503 27012KT 9999 SCT030 520053 510653 QNH2983INS TX11/2421Z TN02/2416Z

Example: see airport list